Time;durP1;ratioP1;P1;durP2;ratioP2;P2;SDS_P1;SDS_P2;PMS_P1;PMS_P2;Temp;Humidity;BMP_temperature;BMP_pressure;BME280_temperature;BME280_humidity;BME280_pressure;Samples;Min_cycle;Max_cycle;Signal;HPM_P1;HPM_P2
2022/06/11 00:01:07;;;;;;;12.38;7.47;;;17.90;99.90;;;;;;5029462;28;20429;-80
2022/06/11 00:03:34;;;;;;;10.93;6.15;;;;;;;;;;5043667;28;20773;-80
2022/06/11 00:06:00;;;;;;;11.90;6.72;;;;;;;;;;5026715;28;20427;-80
2022/06/11 00:08:26;;;;;;;9.48;5.97;;;;;;;;;;5027852;28;20417;-80
2022/06/11 00:10:52;;;;;;;10.30;6.22;;;;;;;;;;5048398;28;20499;-81
2022/06/11 00:13:22;;;;;;;10.45;5.72;;;;;;;;;;5038486;28;20544;-81
2022/06/11 00:15:48;;;;;;;11.43;5.40;;;;;;;;;;5044272;28;20449;-81
2022/06/11 00:18:14;;;;;;;9.32;4.95;;;;;;;;;;5034668;28;20415;-81
2022/06/11 00:20:40;;;;;;;10.10;3.87;;;;;;;;;;5026264;28;20397;-81
2022/06/11 00:23:06;;;;;;;8.30;3.05;;;;;;;;;;5038956;28;20515;-81
2022/06/11 00:25:34;;;;;;;9.40;2.80;;;;;;;;;;5032706;28;20434;-81
2022/06/11 00:28:01;;;;;;;7.63;2.97;;;17.20;99.90;;;;;;5045945;28;20429;-81
2022/06/11 00:30:28;;;;;;;7.47;2.65;;;;;;;;;;5046526;28;20403;-81
2022/06/11 00:32:55;;;;;;;11.45;2.80;;;;;;;;;;5045691;28;20430;-81
2022/06/11 00:35:24;;;;;;;7.43;2.58;;;17.00;99.90;;;;;;5025885;28;20429;-81
2022/06/11 00:37:50;;;;;;;8.95;2.75;;;;;;;;;;5043324;28;20459;-81
2022/06/11 00:40:19;;;;;;;8.90;2.47;;;16.90;99.90;;;;;;5024631;28;20429;-81
2022/06/11 00:42:45;;;;;;;11.25;2.83;;;;;;;;;;5046063;28;20412;-81
2022/06/11 00:45:14;;;;;;;9.85;2.47;;;17.10;99.90;;;;;;5034238;28;20435;-81
2022/06/11 00:47:41;;;;;;;6.82;2.63;;;;;;;;;;5044291;28;20419;-81
2022/06/11 00:50:37;;;;;;;6.88;2.38;;;17.00;99.90;;;;;;5056138;28;20846;-81
2022/06/11 00:53:11;;;;;;;10.32;2.47;;;16.70;99.90;;;;;;5048668;28;20908;-81
2022/06/11 00:55:39;;;;;;;7.25;2.22;;;16.80;99.90;;;;;;5047240;28;20517;-81
2022/06/11 00:58:17;;;;;;;8.00;2.77;;;16.90;99.90;;;;;;5027226;28;20430;-81
2022/06/11 01:00:55;;;;;;;7.78;2.40;;;16.90;99.90;;;;;;5027923;28;20456;-81
2022/06/11 01:03:29;;;;;;;7.68;2.50;;;16.90;99.90;;;;;;5046130;28;20427;-81
2022/06/11 01:06:15;;;;;;;11.15;3.00;;;16.70;99.90;;;;;;5060664;28;20781;-81
2022/06/11 01:08:46;;;;;;;9.68;2.58;;;;;;;;;;5045861;28;20425;-81
2022/06/11 01:11:15;;;;;;;6.40;2.28;;;;;;;;;;5040949;28;20434;-81
2022/06/11 01:13:48;;;;;;;8.95;2.50;;;;;;;;;;5024596;28;20502;-81
2022/06/11 01:16:24;;;;;;;7.55;2.42;;;;;;;;;;5038500;28;20443;-81
2022/06/11 01:18:54;;;;;;;8.68;2.55;;;;;;;;;;5048183;28;20445;-81
2022/06/11 01:21:32;;;;;;;7.75;2.28;;;16.90;99.90;;;;;;5024442;28;20477;-81
2022/06/11 01:24:16;;;;;;;9.25;2.50;;;;;;;;;;5047281;28;20442;-81
2022/06/11 01:26:42;;;;;;;6.95;2.67;;;;;;;;;;5042223;28;20428;-82
2022/06/11 01:29:11;;;;;;;7.28;2.35;;;;;;;;;;5018542;28;20494;-81
2022/06/11 01:31:57;;;;;;;8.50;2.78;;;16.30;99.90;;;;;;5044982;28;20518;-81
2022/06/11 01:34:50;;;;;;;7.40;2.60;;;;;;;;;;5045725;28;20419;-81
2022/06/11 01:37:25;;;;;;;9.27;2.40;;;16.30;99.90;;;;;;5038036;28;20920;-82
2022/06/11 01:39:54;;;;;;;9.80;2.50;;;16.30;99.90;;;;;;5045558;28;20426;-82
2022/06/11 01:42:26;;;;;;;9.85;2.58;;;16.30;99.90;;;;;;5023384;28;20994;-82
2022/06/11 01:45:11;;;;;;;10.03;2.30;;;16.30;99.90;;;;;;5044517;28;20932;-82
2022/06/11 01:47:37;;;;;;;8.15;2.78;;;;;;;;;;5044907;28;20565;-82
2022/06/11 01:50:06;;;;;;;8.88;2.40;;;16.40;99.90;;;;;;5026914;28;20424;-82
2022/06/11 01:52:32;;;;;;;7.75;2.53;;;;;;;;;;5045962;28;20435;-82
2022/06/11 01:55:16;;;;;;;10.68;2.95;;;;;;;;;;5024075;28;20436;-82
2022/06/11 01:57:45;;;;;;;10.75;2.88;;;;;;;;;;5021391;28;20426;-82
2022/06/11 02:00:15;;;;;;;9.88;3.00;;;;;;;;;;5035880;28;20902;-82
2022/06/11 02:03:09;;;;;;;9.23;2.83;;;16.30;99.90;;;;;;5032168;28;20762;-82
2022/06/11 02:05:51;;;;;;;9.30;2.65;;;16.10;99.90;;;;;;5040324;28;20443;-81
2022/06/11 02:08:26;;;;;;;12.27;3.10;;;;;;;;;;5035564;28;20427;-81
2022/06/11 02:11:08;;;;;;;9.57;2.70;;;;;;;;;;5049056;28;20870;-81
2022/06/11 02:13:55;;;;;;;8.63;3.15;;;16.10;99.90;;;;;;5045597;28;20826;-82
2022/06/11 02:16:28;;;;;;;10.52;3.38;;;;;;;;;;5026706;28;20407;-82
2022/06/11 02:18:54;;;;;;;8.25;2.92;;;;;;;;;;5042096;28;20473;-82
2022/06/11 02:21:26;;;;;;;11.57;2.93;;;15.90;99.90;;;;;;5029878;28;20563;-82
2022/06/11 02:23:53;;;;;;;8.85;3.03;;;;;;;;;;5033260;28;20449;-81
2022/06/11 02:26:22;;;;;;;9.60;3.33;;;;;;;;;;5040295;28;20764;-82
2022/06/11 02:28:49;;;;;;;12.68;3.42;;;;;;;;;;5041923;28;20496;-81
2022/06/11 02:31:23;;;;;;;7.88;3.38;;;15.60;99.90;;;;;;5043089;28;20504;-82
2022/06/11 02:33:49;;;;;;;9.07;3.28;;;;;;;;;;5048447;28;20399;-82
2022/06/11 02:36:27;;;;;;;11.18;3.80;;;;;;;;;;5034902;28;20455;-82
2022/06/11 02:38:58;;;;;;;14.07;4.00;;;15.50;99.90;;;;;;5038008;28;20482;-81
2022/06/11 02:41:26;;;;;;;11.17;3.50;;;;;;;;;;5024492;28;20500;-82
2022/06/11 02:43:52;;;;;;;10.57;3.63;;;;;;;;;;5039693;28;20425;-82
2022/06/11 02:49:04;;;;;;;10.80;4.30;;;15.20;99.90;;;;;;5051036;28;20409;-82
2022/06/11 02:51:31;;;;;;;14.15;3.50;;;15.30;99.90;;;;;;5039086;28;20423;-81
2022/06/11 02:53:57;;;;;;;11.77;3.67;;;;;;;;;;5033659;28;20423;-81
2022/06/11 02:56:24;;;;;;;10.43;3.90;;;;;;;;;;5047305;28;20421;-82
2022/06/11 02:58:50;;;;;;;11.18;4.00;;;;;;;;;;5045872;28;20425;-82
2022/06/11 03:01:17;;;;;;;11.95;3.85;;;;;;;;;;5042535;28;20421;-82
2022/06/11 03:03:43;;;;;;;13.70;4.30;;;;;;;;;;5027410;28;20417;-82
2022/06/11 03:06:09;;;;;;;12.98;4.50;;;;;;;;;;5040570;28;20845;-82
2022/06/11 03:08:36;;;;;;;10.63;4.45;;;;;;;;;;5020675;28;21335;-82
2022/06/11 03:11:02;;;;;;;12.20;4.23;;;;;;;;;;5042527;28;20943;-81
2022/06/11 03:13:30;;;;;;;12.45;4.15;;;;;;;;;;5047942;28;20424;-82
2022/06/11 03:15:56;;;;;;;12.82;4.05;;;;;;;;;;5048727;28;20837;-82
2022/06/11 03:18:23;;;;;;;15.10;4.30;;;;;;;;;;5046801;28;20803;-82
2022/06/11 03:20:50;;;;;;;10.03;3.73;;;15.00;99.90;;;;;;5054400;28;20453;-82
2022/06/11 03:23:17;;;;;;;11.10;3.85;;;;;;;;;;5030264;28;20476;-82
2022/06/11 03:25:43;;;;;;;10.38;3.67;;;;;;;;;;5033523;28;20449;-82
2022/06/11 03:28:12;;;;;;;13.45;3.83;;;;;;;;;;5046543;28;20419;-82
2022/06/11 03:30:38;;;;;;;12.65;4.00;;;;;;;;;;5054967;28;20401;-82
2022/06/11 03:33:05;;;;;;;10.53;3.60;;;;;;;;;;5041278;28;20919;-82
2022/06/11 03:35:31;;;;;;;12.23;3.88;;;;;;;;;;5039457;28;20492;-82
2022/06/11 03:37:57;;;;;;;19.15;4.10;;;;;;;;;;5030980;28;20508;-82
2022/06/11 03:40:24;;;;;;;11.50;3.90;;;;;;;;;;5048456;28;20416;-83
2022/06/11 03:42:50;;;;;;;13.25;4.03;;;;;;;;;;5061369;28;20484;-82
2022/06/11 03:45:17;;;;;;;14.15;4.28;;;;;;;;;;5047992;28;20909;-82
2022/06/11 03:47:43;;;;;;;12.33;3.90;;;;;;;;;;5032631;28;20441;-82
2022/06/11 03:50:32;;;;;;;12.23;4.07;;;14.80;99.90;;;;;;5028945;28;20423;-82
2022/06/11 03:52:58;;;;;;;15.38;4.20;;;;;;;;;;5031445;28;20411;-81
2022/06/11 03:55:25;;;;;;;12.70;4.05;;;;;;;;;;5026394;28;20430;-81
2022/06/11 03:57:51;;;;;;;15.00;4.37;;;14.90;99.90;;;;;;5067086;28;20830;-81
2022/06/11 04:01:14;;;;;;;11.73;4.47;;;;;;;;;;5041971;28;20431;-82
2022/06/11 04:03:06;;;;;;;14.45;4.47;;;;;;;;;;5049305;28;20405;-81
2022/06/11 04:05:33;;;;;;;14.77;4.20;;;;;;;;;;5014739;28;20505;-83
2022/06/11 04:07:59;;;;;;;13.75;3.90;;;;;;;;;;5032171;28;20494;-83
2022/06/11 04:10:25;;;;;;;13.00;3.80;;;;;;;;;;5025248;28;20449;-83
2022/06/11 04:12:52;;;;;;;13.80;3.90;;;;;;;;;;5035218;28;20486;-83
2022/06/11 04:15:18;;;;;;;15.50;4.13;;;;;;;;;;5046539;28;20939;-83
2022/06/11 04:17:44;;;;;;;16.50;4.00;;;;;;;;;;5046325;28;20421;-82
2022/06/11 04:20:12;;;;;;;11.55;3.67;;;;;;;;;;5031814;28;20427;-83
2022/06/11 04:22:38;;;;;;;12.15;3.83;;;;;;;;;;5025205;28;20467;-83
2022/06/11 04:25:05;;;;;;;14.25;3.60;;;;;;;;;;5031961;28;20448;-82
2022/06/11 04:27:33;;;;;;;13.85;4.05;;;;;;;;;;5042244;28;21309;-82
2022/06/11 04:30:00;;;;;;;17.15;4.00;;;;;;;;;;5042900;28;20932;-81
2022/06/11 04:32:27;;;;;;;11.10;3.50;;;15.20;99.90;;;;;;5036998;28;20512;-81
2022/06/11 04:34:54;;;;;;;13.65;4.30;;;;;;;;;;5041241;28;20979;-81
2022/06/11 04:37:23;;;;;;;10.40;4.03;;;15.20;99.90;;;;;;5039385;28;20435;-82
2022/06/11 04:39:51;;;;;;;12.77;4.28;;;15.10;99.90;;;;;;5022393;28;20490;-82
2022/06/11 04:42:18;;;;;;;11.95;4.20;;;;;;;;;;5046484;28;20440;-82
2022/06/11 04:44:45;;;;;;;12.88;3.70;;;;;;;;;;5048248;28;20425;-82
2022/06/11 04:47:12;;;;;;;14.95;4.20;;;;;;;;;;5015013;28;20795;-81
2022/06/11 04:49:38;;;;;;;12.48;4.00;;;;;;;;;;5042978;28;20413;-82
2022/06/11 04:52:05;;;;;;;13.90;4.00;;;;;;;;;;5047992;28;20490;-81
2022/06/11 04:54:31;;;;;;;14.40;4.35;;;;;;;;;;5040913;28;20411;-82
2022/06/11 04:56:57;;;;;;;13.73;4.47;;;;;;;;;;5022804;28;20414;-81
2022/06/11 04:59:23;;;;;;;17.00;4.63;;;;;;;;;;5004028;28;20425;-82
2022/06/11 05:01:49;;;;;;;14.77;4.38;;;;;;;;;;5031146;28;20417;-82
2022/06/11 05:04:15;;;;;;;14.10;4.10;;;;;;;;;;5017078;28;20863;-82
2022/06/11 05:06:45;;;;;;;16.48;3.88;;;15.80;99.90;;;;;;5019580;28;20519;-82
2022/06/11 05:09:17;;;;;;;15.80;4.50;;;15.80;99.90;;;;;;5028530;28;20954;-82
2022/06/11 05:11:43;;;;;;;13.80;4.07;;;;;;;;;;5055529;28;20418;-82
2022/06/11 05:14:09;;;;;;;17.23;5.27;;;;;;;;;;5025682;28;20474;-82
2022/06/11 05:16:36;;;;;;;17.77;4.85;;;;;;;;;;5022903;28;20734;-82
2022/06/11 05:19:02;;;;;;;15.15;4.03;;;;;;;;;;5040053;28;20427;-82
2022/06/11 05:21:28;;;;;;;15.75;4.22;;;;;;;;;;5053598;28;20941;-82
2022/06/11 05:23:55;;;;;;;18.30;4.50;;;;;;;;;;5014305;28;20442;-82
2022/06/11 05:26:23;;;;;;;19.15;4.95;;;15.80;99.90;;;;;;5047659;28;20425;-82
2022/06/11 05:28:50;;;;;;;19.15;5.00;;;;;;;;;;5047006;28;20497;-82
2022/06/11 05:31:16;;;;;;;16.73;4.80;;;;;;;;;;5051838;28;20471;-82
2022/06/11 05:33:42;;;;;;;18.88;4.90;;;;;;;;;;5057014;28;20408;-82
2022/06/11 05:36:09;;;;;;;22.65;5.00;;;;;;;;;;5048859;28;21582;-82
2022/06/11 05:38:35;;;;;;;17.17;4.57;;;;;;;;;;5037918;28;20430;-82
2022/06/11 05:41:01;;;;;;;20.63;5.57;;;;;;;;;;5032730;28;20462;-82
2022/06/11 05:43:27;;;;;;;20.58;5.20;;;;;;;;;;5034065;28;20759;-82
2022/06/11 05:45:56;;;;;;;16.83;4.97;;;;;;;;;;5043201;28;20760;-82
2022/06/11 05:48:30;;;;;;;22.05;5.57;;;16.40;99.90;;;;;;5025125;28;20415;-82
2022/06/11 05:50:57;;;;;;;19.08;5.00;;;;;;;;;;5048574;28;20417;-82
2022/06/11 05:53:26;;;;;;;19.45;5.65;;;16.70;99.90;;;;;;5053900;28;20401;-82
2022/06/11 05:55:53;;;;;;;21.50;5.72;;;;;;;;;;5042695;28;20502;-83
2022/06/11 05:58:21;;;;;;;21.02;6.05;;;;;;;;;;5048220;28;20446;-83
2022/06/11 06:00:48;;;;;;;21.23;5.60;;;16.70;99.90;;;;;;5036544;28;20933;-83
2022/06/11 06:03:14;;;;;;;22.80;5.60;;;;;;;;;;5042450;28;20422;-83
2022/06/11 06:05:40;;;;;;;22.45;5.68;;;;;;;;;;5031558;28;20506;-84
2022/06/11 06:08:07;;;;;;;22.35;5.70;;;17.10;99.90;;;;;;5041634;28;20423;-83
2022/06/11 06:10:34;;;;;;;19.13;5.90;;;;;;;;;;5018579;28;20421;-83
2022/06/11 06:13:00;;;;;;;22.13;5.95;;;;;;;;;;5049954;28;20471;-83
2022/06/11 06:15:29;;;;;;;21.95;5.97;;;17.30;99.90;;;;;;5035230;28;21104;-81
2022/06/11 06:17:55;;;;;;;22.38;5.50;;;17.00;99.90;;;;;;5044319;28;20431;-80
2022/06/11 06:20:23;;;;;;;21.45;5.47;;;17.40;99.90;;;;;;5014094;28;20425;-80
2022/06/11 06:22:50;;;;;;;21.25;5.80;;;;;;;;;;5047069;28;20545;-79
2022/06/11 06:25:19;;;;;;;18.88;5.38;;;17.30;99.90;;;;;;5037405;28;20523;-80
2022/06/11 06:27:45;;;;;;;22.67;5.63;;;;;;;;;;5034578;28;20419;-80
2022/06/11 06:30:11;;;;;;;22.08;5.88;;;17.40;99.90;;;;;;5039644;28;20427;-78
2022/06/11 06:32:38;;;;;;;23.10;6.05;;;;;;;;;;5015524;28;20411;-79
2022/06/11 06:35:04;;;;;;;22.53;5.93;;;17.80;99.90;;;;;;5040823;28;20414;-79
2022/06/11 06:37:32;;;;;;;18.52;5.63;;;17.60;99.90;;;;;;5046807;28;20443;-78
2022/06/11 06:39:58;;;;;;;21.35;5.60;;;17.70;99.90;;;;;;5031168;28;20431;-78
2022/06/11 06:42:24;;;;;;;27.58;6.10;;;;;;;;;;5040032;28;20450;-79
2022/06/11 06:44:50;;;;;;;22.80;6.45;;;18.00;99.90;;;;;;5044225;28;20421;-78
2022/06/11 06:47:16;;;;;;;21.33;5.30;;;;;;;;;;5039602;28;20799;-77
2022/06/11 06:49:42;;;;;;;23.48;5.68;;;18.30;99.90;;;;;;5028328;28;20429;-77
2022/06/11 06:52:08;;;;;;;22.95;5.60;;;;;;;;;;5021484;28;20430;-78
2022/06/11 06:54:35;;;;;;;19.75;5.63;;;;;;;;;;5040702;28;20419;-78
2022/06/11 06:57:01;;;;;;;22.70;5.50;;;;;;;;;;5013890;28;20421;-78
2022/06/11 06:59:28;;;;;;;25.23;5.97;;;;;;;;;;5037696;28;20500;-78
2022/06/11 07:01:54;;;;;;;19.88;5.32;;;18.20;99.90;;;;;;5037461;28;20429;-78
2022/06/11 07:04:20;;;;;;;22.90;5.90;;;;;;;;;;5041464;28;20419;-79
2022/06/11 07:06:46;;;;;;;18.60;5.10;;;18.30;99.90;;;;;;5033597;28;20831;-78
2022/06/11 07:09:12;;;;;;;22.08;5.35;;;;;;;;;;5022471;28;20448;-78
2022/06/11 07:11:38;;;;;;;23.55;5.32;;;18.60;99.90;;;;;;5027826;28;20926;-78
2022/06/11 07:14:04;;;;;;;22.50;6.60;;;18.50;99.90;;;;;;5029849;28;20545;-78
2022/06/11 07:16:34;;;;;;;20.08;5.30;;;18.50;99.90;;;;;;5043542;28;20428;-78
2022/06/11 07:19:04;;;;;;;20.25;4.70;;;18.50;99.90;;;;;;5045513;28;20405;-78
2022/06/11 07:21:39;;;;;;;19.75;5.30;;;18.70;99.90;;;;;;5039263;28;20419;-78
2022/06/11 07:24:10;;;;;;;20.17;5.68;;;18.80;99.90;;;;;;5045169;28;20502;-78
2022/06/11 07:26:43;;;;;;;21.55;5.78;;;18.90;99.90;;;;;;5039984;28;20453;-78
2022/06/11 07:29:15;;;;;;;22.10;5.38;;;19.20;99.90;;;;;;5025961;28;20934;-78
2022/06/11 07:31:44;;;;;;;22.95;6.57;;;18.80;99.90;;;;;;5020980;28;20473;-77
2022/06/11 07:34:11;;;;;;;19.92;5.28;;;19.00;99.90;;;;;;5028431;28;20410;-77
2022/06/11 07:36:37;;;;;;;19.58;5.90;;;19.10;99.90;;;;;;5038854;28;20519;-77
2022/06/11 07:39:03;;;;;;;18.60;5.20;;;19.40;99.90;;;;;;5024353;28;20435;-77
2022/06/11 07:41:29;;;;;;;23.38;5.47;;;19.50;99.90;;;;;;5016765;28;20481;-78
2022/06/11 07:43:55;;;;;;;20.70;5.15;;;19.40;99.90;;;;;;5051866;28;20503;-77
2022/06/11 07:46:21;;;;;;;18.67;4.88;;;19.40;99.90;;;;;;5008801;28;20419;-77
2022/06/11 07:48:48;;;;;;;20.40;5.32;;;19.30;99.90;;;;;;5044135;28;20417;-78
2022/06/11 07:51:18;;;;;;;22.60;5.50;;;19.40;99.90;;;;;;5027374;28;20422;-78
2022/06/11 07:53:48;;;;;;;21.63;5.13;;;19.50;99.90;;;;;;5038436;28;20433;-78
2022/06/11 07:56:15;;;;;;;18.75;5.35;;;19.30;99.90;;;;;;5017382;28;20518;-78
2022/06/11 07:58:41;;;;;;;18.70;5.22;;;19.30;99.90;;;;;;5043965;28;20448;-78
2022/06/11 08:01:07;;;;;;;22.08;5.55;;;19.30;99.90;;;;;;5020521;28;20785;-78
2022/06/11 08:03:37;;;;;;;17.02;5.05;;;19.50;99.90;;;;;;5044507;28;20458;-78
2022/06/11 08:06:03;;;;;;;20.60;5.23;;;19.60;99.90;;;;;;5048357;28;20429;-78
2022/06/11 08:08:29;;;;;;;19.67;5.27;;;19.50;99.90;;;;;;5024245;28;20438;-78
2022/06/11 08:10:55;;;;;;;19.07;5.23;;;19.00;99.90;;;;;;5027052;28;20453;-78
2022/06/11 08:13:20;;;;;;;21.97;4.97;;;19.60;99.90;;;;;;5047817;28;20822;-78
2022/06/11 08:15:48;;;;;;;19.70;5.07;;;19.50;99.90;;;;;;5046617;28;20438;-79
2022/06/11 08:18:15;;;;;;;19.23;5.30;;;19.80;99.90;;;;;;5051124;28;20476;-78
2022/06/11 08:20:41;;;;;;;20.35;4.93;;;19.80;99.90;;;;;;5019948;28;20433;-77
2022/06/11 08:23:08;;;;;;;16.50;4.50;;;19.70;99.90;;;;;;5038525;28;20425;-79
2022/06/11 08:25:34;;;;;;;17.40;4.50;;;19.70;99.90;;;;;;5026940;28;20435;-79
2022/06/11 08:28:04;;;;;;;18.40;4.78;;;20.00;99.90;;;;;;5020312;28;20422;-79
2022/06/11 08:30:31;;;;;;;18.40;4.60;;;20.10;99.90;;;;;;5033555;28;20906;-80
2022/06/11 08:32:57;;;;;;;20.63;4.60;;;19.90;99.90;;;;;;5000988;28;20919;-78
2022/06/11 08:35:26;;;;;;;17.90;4.40;;;19.90;99.90;;;;;;5047244;28;20428;-78
2022/06/11 08:37:53;;;;;;;17.15;4.47;;;20.00;99.90;;;;;;5034445;28;20426;-78
2022/06/11 08:40:54;;;;;;;17.80;4.35;;;20.40;99.90;;;;;;5028324;28;20405;-78
2022/06/11 08:43:32;;;;;;;14.65;4.07;;;20.60;99.90;;;;;;5040812;28;20428;-79
2022/06/11 08:46:17;;;;;;;17.65;4.95;;;21.20;99.90;;;;;;5035701;28;20691;-78
2022/06/11 08:48:42;;;;;;;16.27;4.20;;;20.90;99.90;;;;;;5046896;28;20417;-78
2022/06/11 08:51:18;;;;;;;15.38;4.32;;;21.50;99.90;;;;;;5038828;28;20933;-78
2022/06/11 08:53:44;;;;;;;17.53;4.40;;;21.70;99.90;;;;;;5043476;28;20454;-78
2022/06/11 08:56:37;;;;;;;14.35;4.13;;;21.80;99.90;;;;;;5031075;28;20413;-79
2022/06/11 08:59:08;;;;;;;12.98;4.10;;;24.00;99.90;;;;;;5012413;28;20518;-78
2022/06/11 09:01:59;;;;;;;16.27;4.32;;;21.60;99.90;;;;;;5046150;28;20436;-79
2022/06/11 09:04:43;;;;;;;14.55;3.70;;;21.80;99.90;;;;;;5038787;28;20531;-78
2022/06/11 09:07:19;;;;;;;14.48;3.85;;;21.70;99.90;;;;;;5046882;28;20489;-79
2022/06/11 09:09:58;;;;;;;14.05;4.07;;;21.60;99.90;;;;;;5041825;28;20444;-79
2022/06/11 09:12:48;;;;;;;15.05;3.70;;;21.70;99.90;;;;;;5049433;28;20413;-79
2022/06/11 09:15:36;;;;;;;13.27;3.80;;;21.50;99.90;;;;;;5051406;28;20516;-78
2022/06/11 09:18:13;;;;;;;14.00;3.60;;;21.80;99.90;;;;;;5040455;28;20924;-78
2022/06/11 09:20:56;;;;;;;13.57;3.47;;;22.00;99.90;;;;;;5039727;28;20426;-79
2022/06/11 09:23:38;;;;;;;13.85;3.53;;;21.70;99.90;;;;;;5036849;28;20423;-78
2022/06/11 09:26:24;;;;;;;12.95;3.30;;;23.10;99.90;;;;;;5047962;28;20441;-77
2022/06/11 09:29:20;;;;;;;9.55;2.60;;;21.60;99.90;;;;;;5047209;28;20397;-78
2022/06/11 09:32:01;;;;;;;13.60;3.20;;;21.30;99.90;;;;;;5038500;28;20424;-78
2022/06/11 09:34:50;;;;;;;10.10;2.92;;;21.60;99.90;;;;;;5033870;28;20432;-76
2022/06/11 09:37:23;;;;;;;13.05;3.30;;;21.10;99.90;;;;;;5036224;28;20767;-78
2022/06/11 09:40:30;;;;;;;11.73;3.10;;;21.50;99.90;;;;;;5045181;28;20470;-78
2022/06/11 09:43:11;;;;;;;13.43;3.47;;;21.20;99.90;;;;;;4989207;28;20431;-79
2022/06/11 09:46:06;;;;;;;13.02;3.03;;;22.00;99.90;;;;;;5045016;28;20513;-78
2022/06/11 09:49:22;;;;;;;9.90;3.05;;;21.60;99.90;;;;;;5038362;28;20429;-79
2022/06/11 09:52:07;;;;;;;13.07;3.38;;;21.40;99.90;;;;;;5040495;28;20454;-78
2022/06/11 09:54:32;;;;;;;11.38;3.58;;;21.50;99.90;;;;;;5056083;28;20447;-79
2022/06/11 09:57:08;;;;;;;13.52;3.40;;;21.80;99.90;;;;;;5047092;28;20503;-79
2022/06/11 09:59:40;;;;;;;13.20;3.40;;;21.60;99.90;;;;;;5042689;28;20426;-79
2022/06/11 10:05:02;;;;;;;16.05;3.50;;;21.90;99.90;;;;;;5045279;28;20462;-80
2022/06/11 10:07:35;;;;;;;12.77;3.13;;;21.80;99.90;;;;;;5045398;28;20793;-79
2022/06/11 10:10:29;;;;;;;11.20;2.83;;;21.90;99.90;;;;;;5036889;28;20473;-78
2022/06/11 10:13:08;;;;;;;11.52;2.80;;;21.60;99.90;;;;;;5039990;28;20485;-78
2022/06/11 10:15:38;;;;;;;11.50;3.38;;;22.10;99.90;;;;;;5036797;28;20434;-78
2022/06/11 10:18:19;;;;;;;11.45;3.00;;;22.40;99.90;;;;;;5035882;28;20426;-78
2022/06/11 10:20:53;;;;;;;11.45;3.30;;;22.80;99.90;;;;;;5044738;28;20426;-78
2022/06/11 10:23:46;;;;;;;11.85;3.25;;;22.30;99.90;;;;;;5056625;28;20907;-78
2022/06/11 10:26:38;;;;;;;14.25;3.33;;;22.40;99.90;;;;;;5046074;28;20769;-77
2022/06/11 10:29:27;;;;;;;11.13;2.72;;;22.30;99.90;;;;;;5042409;28;20779;-77
2022/06/11 10:32:05;;;;;;;9.52;3.00;;;22.10;99.90;;;;;;5039281;28;20419;-78
2022/06/11 10:34:31;;;;;;;11.30;2.95;;;22.00;99.90;;;;;;5048086;28;20419;-78
2022/06/11 10:37:15;;;;;;;13.30;3.25;;;22.10;99.90;;;;;;5035995;28;20430;-78
2022/06/11 10:40:06;;;;;;;14.40;3.67;;;22.00;99.90;;;;;;5024444;28;20453;-77
2022/06/11 10:42:44;;;;;;;12.80;3.53;;;21.90;99.90;;;;;;5029705;28;20870;-78
2022/06/11 10:45:17;;;;;;;12.35;3.20;;;22.10;99.90;;;;;;5034767;28;20514;-78
2022/06/11 10:47:48;;;;;;;13.88;3.50;;;22.00;99.90;;;;;;5027835;28;20419;-78
2022/06/11 10:50:32;;;;;;;14.10;3.65;;;22.10;99.90;;;;;;5038553;28;20455;-78
2022/06/11 10:53:06;;;;;;;15.07;3.90;;;22.50;99.90;;;;;;5040860;28;20827;-78
2022/06/11 10:55:53;;;;;;;14.93;3.70;;;22.10;99.90;;;;;;5048756;28;20425;-78
2022/06/11 10:58:40;;;;;;;12.38;3.53;;;22.10;99.90;;;;;;5023150;28;20437;-78
2022/06/11 11:01:10;;;;;;;13.70;3.67;;;22.20;99.90;;;;;;5032352;28;20452;-77
2022/06/11 11:03:50;;;;;;;13.10;3.63;;;21.60;99.90;;;;;;5027565;28;20512;-78
2022/06/11 11:06:27;;;;;;;14.13;3.70;;;21.70;99.90;;;;;;5036591;28;20429;-78
2022/06/11 11:08:57;;;;;;;11.73;3.20;;;21.90;99.90;;;;;;5018892;28;20418;-78
2022/06/11 11:11:25;;;;;;;17.00;3.75;;;21.80;99.90;;;;;;5043748;28;20451;-78
2022/06/11 11:13:59;;;;;;;12.55;4.10;;;21.50;99.90;;;;;;5047673;28;20427;-78
2022/06/11 11:16:30;;;;;;;11.13;3.15;;;21.40;99.90;;;;;;5035827;28;20439;-78
2022/06/11 11:19:11;;;;;;;14.27;3.47;;;21.60;99.90;;;;;;5043657;28;20425;-78
2022/06/11 11:21:59;;;;;;;14.47;3.57;;;21.60;99.90;;;;;;5022411;28;20521;-78
2022/06/11 11:24:41;;;;;;;14.20;3.80;;;22.10;99.90;;;;;;5024191;28;20518;-78
2022/06/11 11:27:09;;;;;;;13.20;4.27;;;21.70;99.90;;;;;;5036837;28;20418;-77
2022/06/11 11:29:38;;;;;;;14.52;3.88;;;21.90;99.90;;;;;;5038203;28;20770;-78
2022/06/11 11:32:33;;;;;;;11.27;3.53;;;21.90;99.90;;;;;;5025314;28;20421;-77
2022/06/11 11:35:17;;;;;;;13.00;3.67;;;22.10;99.90;;;;;;5060804;28;20454;-77
2022/06/11 11:37:44;;;;;;;15.77;3.85;;;21.70;99.90;;;;;;5020208;28;20916;-77
2022/06/11 11:40:27;;;;;;;12.60;3.88;;;21.50;99.90;;;;;;5042016;28;20435;-76
2022/06/11 11:42:56;;;;;;;15.52;4.00;;;21.20;99.90;;;;;;5047163;28;20962;-76
2022/06/11 11:45:25;;;;;;;12.87;3.43;;;21.50;99.90;;;;;;5040689;28;20433;-76
2022/06/11 11:48:02;;;;;;;12.60;3.35;;;21.70;99.90;;;;;;5038377;28;20477;-76
2022/06/11 11:50:34;;;;;;;16.48;3.70;;;21.90;99.90;;;;;;5027011;28;20424;-76
2022/06/11 11:53:11;;;;;;;9.90;2.75;;;22.10;99.90;;;;;;5025859;28;20920;-77
2022/06/11 11:55:42;;;;;;;11.38;2.92;;;22.30;99.90;;;;;;5038852;28;20921;-77
2022/06/11 11:58:28;;;;;;;13.68;3.67;;;22.60;99.90;;;;;;5042301;28;20769;-76
2022/06/11 12:01:06;;;;;;;12.13;3.37;;;22.70;99.90;;;;;;5040627;28;20458;-78
2022/06/11 12:03:43;;;;;;;12.63;3.40;;;23.40;99.90;;;;;;5042192;28;20430;-77
2022/06/11 12:06:13;;;;;;;8.77;2.53;;;23.50;99.90;;;;;;5039536;28;20431;-76
2022/06/11 12:08:44;;;;;;;10.27;2.83;;;23.20;99.90;;;;;;5049023;28;20409;-77
2022/06/11 12:11:28;;;;;;;9.20;2.60;;;23.00;99.90;;;;;;5038566;28;20402;-77
2022/06/11 12:13:59;;;;;;;8.83;2.60;;;22.80;99.90;;;;;;5030812;28;20481;-80
2022/06/11 12:16:29;;;;;;;7.95;2.47;;;22.90;99.90;;;;;;5040260;28;20439;-80
2022/06/11 12:19:06;;;;;;;10.57;2.83;;;22.90;99.90;;;;;;5032180;28;20483;-80
2022/06/11 12:21:39;;;;;;;10.55;3.00;;;22.60;99.90;;;;;;5047216;28;20406;-76
2022/06/11 12:24:09;;;;;;;9.55;2.38;;;23.10;99.90;;;;;;5045187;28;20434;-77
2022/06/11 12:26:40;;;;;;;10.10;2.57;;;23.60;99.90;;;;;;5030502;28;20423;-76
2022/06/11 12:29:21;;;;;;;11.60;3.38;;;23.50;99.90;;;;;;5024398;28;20501;-76
2022/06/11 12:31:53;;;;;;;12.60;2.75;;;23.80;99.90;;;;;;5041853;28;20413;-76
2022/06/11 12:34:24;;;;;;;10.10;2.83;;;24.80;99.90;;;;;;5045966;28;20884;-76
2022/06/11 12:37:02;;;;;;;9.20;3.00;;;24.20;99.90;;;;;;5019142;28;20510;-75
2022/06/11 12:39:46;;;;;;;12.20;2.88;;;24.20;99.90;;;;;;5029786;28;20427;-76
2022/06/11 12:42:28;;;;;;;11.07;2.97;;;24.30;99.90;;;;;;5045496;28;20504;-76
2022/06/11 12:44:54;;;;;;;11.57;3.28;;;24.30;99.90;;;;;;5038363;28;20435;-76
2022/06/11 12:47:33;;;;;;;11.50;3.20;;;24.80;99.90;;;;;;5028222;28;20425;-76
2022/06/11 12:50:33;;;;;;;9.20;3.05;;;24.20;99.90;;;;;;5031180;28;20431;-77
2022/06/11 12:53:12;;;;;;;12.30;3.28;;;24.60;99.90;;;;;;5025612;28;20462;-77
2022/06/11 12:55:59;;;;;;;9.25;2.80;;;24.70;99.90;;;;;;5043346;28;20910;-77
2022/06/11 12:58:34;;;;;;;10.98;3.10;;;25.10;99.90;;;;;;5024586;28;20950;-77
2022/06/11 13:01:12;;;;;;;9.70;2.78;;;24.80;99.90;;;;;;5015613;28;20431;-76
2022/06/11 13:04:02;;;;;;;8.50;2.80;;;24.70;99.90;;;;;;5018679;28;20441;-76
2022/06/11 13:06:57;;;;;;;9.60;2.92;;;24.80;99.90;;;;;;5039808;28;20846;-77
2022/06/11 13:09:59;;;;;;;10.93;2.87;;;24.80;99.90;;;;;;5027642;28;20426;-77
2022/06/11 13:13:01;;;;;;;11.10;3.40;;;24.40;99.90;;;;;;5034210;28;20427;-76
2022/06/11 13:15:35;;;;;;;10.57;3.00;;;24.20;99.90;;;;;;5030208;28;20919;-77
2022/06/11 13:18:32;;;;;;;11.15;3.20;;;23.80;99.90;;;;;;5037723;28;20441;-77
2022/06/11 13:20:58;;;;;;;9.48;3.00;;;23.90;99.90;;;;;;5039088;28;20421;-76
2022/06/11 13:23:42;;;;;;;10.00;3.10;;;23.90;99.90;;;;;;5035954;28;20433;-77
2022/06/11 13:26:10;;;;;;;11.27;3.27;;;24.20;99.90;;;;;;5032198;28;20429;-76
2022/06/11 13:29:05;;;;;;;10.50;2.95;;;24.40;99.90;;;;;;5027918;28;20441;-76
2022/06/11 13:32:00;;;;;;;11.18;3.28;;;24.10;99.90;;;;;;5050633;28;20428;-76
2022/06/11 13:34:51;;;;;;;11.35;3.05;;;24.30;99.90;;;;;;5031902;28;20425;-76
2022/06/11 13:37:26;;;;;;;13.40;3.97;;;24.60;99.90;;;;;;5018420;28;20441;-76
2022/06/11 13:40:14;;;;;;;9.65;2.83;;;24.90;99.90;;;;;;5039458;28;20433;-77
2022/06/11 13:43:01;;;;;;;9.05;2.58;;;23.90;99.90;;;;;;5034245;28;20425;-75
2022/06/11 13:45:35;;;;;;;10.50;2.90;;;25.10;99.90;;;;;;5040208;28;20463;-75
2022/06/11 13:48:19;;;;;;;9.35;2.97;;;26.10;99.90;;;;;;5036015;28;20536;-76
2022/06/11 13:50:51;;;;;;;13.80;3.35;;;26.20;99.90;;;;;;5040825;28;20839;-76
2022/06/11 13:56:54;;;;;;;12.00;3.15;;;25.80;99.90;;;;;;5038396;28;20456;-75